sensor_id;sensor_type;location;lat;lon;timestamp;P1;durP1;ratioP1;P2;durP2;ratioP2
21120;SDS011;12519;43.318;21.898;2022-10-03T00:00:37;6.0;;;6.0;;
21120;SDS011;12519;43.318;21.898;2022-10-03T00:06:04;6.0;;;5.0;;
21120;SDS011;12519;43.318;21.898;2022-10-03T00:11:02;6.0;;;5.0;;
21120;SDS011;12519;43.318;21.898;2022-10-03T00:16:13;5.0;;;4.0;;
21120;SDS011;12519;43.318;21.898;2022-10-03T00:21:20;5.0;;;4.0;;
21120;SDS011;12519;43.318;21.898;2022-10-03T00:26:41;6.0;;;5.0;;
21120;SDS011;12519;43.318;21.898;2022-10-03T00:31:45;6.0;;;5.0;;
21120;SDS011;12519;43.318;21.898;2022-10-03T00:36:59;6.0;;;6.0;;
21120;SDS011;12519;43.318;21.898;2022-10-03T00:45:11;6.0;;;6.0;;
21120;SDS011;12519;43.318;21.898;2022-10-03T00:50:52;6.0;;;6.0;;
21120;SDS011;12519;43.318;21.898;2022-10-03T00:56:19;5.0;;;5.0;;
21120;SDS011;12519;43.318;21.898;2022-10-03T01:01:34;5.0;;;5.0;;
21120;SDS011;12519;43.318;21.898;2022-10-03T01:06:37;5.0;;;5.0;;
21120;SDS011;12519;43.318;21.898;2022-10-03T01:12:18;5.0;;;5.0;;
21120;SDS011;12519;43.318;21.898;2022-10-03T01:18:20;5.0;;;5.0;;
21120;SDS011;12519;43.318;21.898;2022-10-03T01:24:20;5.0;;;5.0;;
21120;SDS011;12519;43.318;21.898;2022-10-03T01:29:44;6.0;;;6.0;;
21120;SDS011;12519;43.318;21.898;2022-10-03T01:34:50;6.0;;;6.0;;
21120;SDS011;12519;43.318;21.898;2022-10-03T01:40:21;7.0;;;6.0;;
21120;SDS011;12519;43.318;21.898;2022-10-03T01:45:30;7.0;;;6.0;;
21120;SDS011;12519;43.318;21.898;2022-10-03T01:51:00;6.0;;;6.0;;
21120;SDS011;12519;43.318;21.898;2022-10-03T01:56:17;6.0;;;5.0;;
21120;SDS011;12519;43.318;21.898;2022-10-03T02:01:25;6.0;;;5.0;;
21120;SDS011;12519;43.318;21.898;2022-10-03T02:06:43;6.0;;;5.0;;
21120;SDS011;12519;43.318;21.898;2022-10-03T02:12:00;6.0;;;5.0;;
21120;SDS011;12519;43.318;21.898;2022-10-03T02:17:00;6.0;;;5.0;;
21120;SDS011;12519;43.318;21.898;2022-10-03T02:21:50;6.0;;;5.0;;
21120;SDS011;12519;43.318;21.898;2022-10-03T02:28:17;6.0;;;5.0;;
21120;SDS011;12519;43.318;21.898;2022-10-03T02:34:01;6.0;;;5.0;;
21120;SDS011;12519;43.318;21.898;2022-10-03T02:42:24;5.0;;;5.0;;
21120;SDS011;12519;43.318;21.898;2022-10-03T02:48:53;6.0;;;5.0;;
21120;SDS011;12519;43.318;21.898;2022-10-03T02:54:37;6.0;;;5.0;;
21120;SDS011;12519;43.318;21.898;2022-10-03T03:00:04;6.0;;;5.0;;
21120;SDS011;12519;43.318;21.898;2022-10-03T03:05:28;6.0;;;5.0;;
21120;SDS011;12519;43.318;21.898;2022-10-03T03:13:25;6.0;;;6.0;;
21120;SDS011;12519;43.318;21.898;2022-10-03T03:18:50;7.0;;;7.0;;
21120;SDS011;12519;43.318;21.898;2022-10-03T03:24:30;7.0;;;7.0;;
21120;SDS011;12519;43.318;21.898;2022-10-03T03:29:46;7.0;;;6.0;;
21120;SDS011;12519;43.318;21.898;2022-10-03T03:35:02;7.0;;;6.0;;
21120;SDS011;12519;43.318;21.898;2022-10-03T03:40:28;7.0;;;5.0;;
21120;SDS011;12519;43.318;21.898;2022-10-03T03:45:58;7.0;;;5.0;;
21120;SDS011;12519;43.318;21.898;2022-10-03T03:51:32;7.0;;;6.0;;
21120;SDS011;12519;43.318;21.898;2022-10-03T03:57:22;7.0;;;6.0;;
21120;SDS011;12519;43.318;21.898;2022-10-03T04:03:18;7.0;;;6.0;;
21120;SDS011;12519;43.318;21.898;2022-10-03T04:09:09;6.0;;;6.0;;
21120;SDS011;12519;43.318;21.898;2022-10-03T04:17:24;6.0;;;5.0;;
21120;SDS011;12519;43.318;21.898;2022-10-03T04:23:06;6.0;;;5.0;;
21120;SDS011;12519;43.318;21.898;2022-10-03T04:28:47;10.0;;;8.0;;
21120;SDS011;12519;43.318;21.898;2022-10-03T04:34:24;10.0;;;8.0;;
21120;SDS011;12519;43.318;21.898;2022-10-03T04:39:36;15.0;;;11.0;;
21120;SDS011;12519;43.318;21.898;2022-10-03T04:45:04;15.0;;;11.0;;
21120;SDS011;12519;43.318;21.898;2022-10-03T04:50:24;13.0;;;10.0;;
21120;SDS011;12519;43.318;21.898;2022-10-03T04:55:31;13.0;;;10.0;;
21120;SDS011;12519;43.318;21.898;2022-10-03T05:00:24;11.0;;;10.0;;
21120;SDS011;12519;43.318;21.898;2022-10-03T05:05:33;11.0;;;10.0;;
21120;SDS011;12519;43.318;21.898;2022-10-03T05:10:49;12.0;;;12.0;;
21120;SDS011;12519;43.318;21.898;2022-10-03T05:15:58;12.0;;;12.0;;
21120;SDS011;12519;43.318;21.898;2022-10-03T05:20:59;14.0;;;14.0;;
21120;SDS011;12519;43.318;21.898;2022-10-03T05:26:03;14.0;;;14.0;;
21120;SDS011;12519;43.318;21.898;2022-10-03T05:31:11;11.0;;;11.0;;
21120;SDS011;12519;43.318;21.898;2022-10-03T05:36:29;8.0;;;8.0;;
21120;SDS011;12519;43.318;21.898;2022-10-03T05:41:34;8.0;;;8.0;;
21120;SDS011;12519;43.318;21.898;2022-10-03T05:46:38;11.0;;;10.0;;
21120;SDS011;12519;43.318;21.898;2022-10-03T05:52:05;11.0;;;10.0;;
21120;SDS011;12519;43.318;21.898;2022-10-03T05:57:57;14.0;;;11.0;;
21120;SDS011;12519;43.318;21.898;2022-10-03T06:03:59;14.0;;;11.0;;
21120;SDS011;12519;43.318;21.898;2022-10-03T06:12:09;12.0;;;9.0;;
21120;SDS011;12519;43.318;21.898;2022-10-03T06:17:29;10.0;;;7.0;;
21120;SDS011;12519;43.318;21.898;2022-10-03T06:23:04;10.0;;;7.0;;
21120;SDS011;12519;43.318;21.898;2022-10-03T06:29:09;9.0;;;8.0;;
21120;SDS011;12519;43.318;21.898;2022-10-03T06:35:40;9.0;;;8.0;;
21120;SDS011;12519;43.318;21.898;2022-10-03T06:43:01;8.0;;;8.0;;
21120;SDS011;12519;43.318;21.898;2022-10-03T06:49:47;8.0;;;8.0;;
21120;SDS011;12519;43.318;21.898;2022-10-03T06:56:34;8.0;;;8.0;;
21120;SDS011;12519;43.318;21.898;2022-10-03T07:02:36;7.0;;;7.0;;
21120;SDS011;12519;43.318;21.898;2022-10-03T07:11:00;8.0;;;7.0;;
21120;SDS011;12519;43.318;21.898;2022-10-03T07:17:36;8.0;;;7.0;;
21120;SDS011;12519;43.318;21.898;2022-10-03T07:27:59;10.0;;;8.0;;
21120;SDS011;12519;43.318;21.898;2022-10-03T07:34:23;10.0;;;8.0;;
21120;SDS011;12519;43.318;21.898;2022-10-03T07:41:22;13.0;;;9.0;;
21120;SDS011;12519;43.318;21.898;2022-10-03T07:48:17;13.0;;;9.0;;
21120;SDS011;12519;43.318;21.898;2022-10-03T08:10:15;9.0;;;9.0;;
21120;SDS011;12519;43.318;21.898;2022-10-03T08:15:12;9.0;;;9.0;;
21120;SDS011;12519;43.318;21.898;2022-10-03T08:20:21;9.0;;;9.0;;
21120;SDS011;12519;43.318;21.898;2022-10-03T08:25:29;9.0;;;9.0;;
21120;SDS011;12519;43.318;21.898;2022-10-03T08:30:22;8.0;;;8.0;;
21120;SDS011;12519;43.318;21.898;2022-10-03T08:35:50;8.0;;;8.0;;
21120;SDS011;12519;43.318;21.898;2022-10-03T08:43:53;8.0;;;8.0;;
21120;SDS011;12519;43.318;21.898;2022-10-03T08:49:46;10.0;;;10.0;;
21120;SDS011;12519;43.318;21.898;2022-10-03T08:55:30;10.0;;;10.0;;
21120;SDS011;12519;43.318;21.898;2022-10-03T09:00:48;12.0;;;11.0;;
21120;SDS011;12519;43.318;21.898;2022-10-03T09:06:54;12.0;;;11.0;;
21120;SDS011;12519;43.318;21.898;2022-10-03T09:15:12;12.0;;;11.0;;
21120;SDS011;12519;43.318;21.898;2022-10-03T09:22:25;11.0;;;11.0;;
21120;SDS011;12519;43.318;21.898;2022-10-03T09:29:31;11.0;;;10.0;;
21120;SDS011;12519;43.318;21.898;2022-10-03T09:35:49;11.0;;;10.0;;
21120;SDS011;12519;43.318;21.898;2022-10-03T09:42:22;11.0;;;9.0;;
21120;SDS011;12519;43.318;21.898;2022-10-03T09:49:32;10.0;;;9.0;;
21120;SDS011;12519;43.318;21.898;2022-10-03T09:57:41;9.0;;;9.0;;
21120;SDS011;12519;43.318;21.898;2022-10-03T10:05:18;9.0;;;9.0;;
21120;SDS011;12519;43.318;21.898;2022-10-03T10:14:01;8.0;;;8.0;;
21120;SDS011;12519;43.318;21.898;2022-10-03T10:19:53;7.0;;;7.0;;
21120;SDS011;12519;43.318;21.898;2022-10-03T10:25:32;7.0;;;7.0;;
21120;SDS011;12519;43.318;21.898;2022-10-03T10:31:21;8.0;;;8.0;;
21120;SDS011;12519;43.318;21.898;2022-10-03T10:37:39;10.0;;;9.0;;
21120;SDS011;12519;43.318;21.898;2022-10-03T10:43:28;10.0;;;9.0;;
21120;SDS011;12519;43.318;21.898;2022-10-03T10:52:46;11.0;;;10.0;;
21120;SDS011;12519;43.318;21.898;2022-10-03T11:04:15;12.0;;;11.0;;
21120;SDS011;12519;43.318;21.898;2022-10-03T11:14:46;10.0;;;9.0;;
21120;SDS011;12519;43.318;21.898;2022-10-03T11:26:47;8.0;;;7.0;;
21120;SDS011;12519;43.318;21.898;2022-10-03T11:35:27;8.0;;;7.0;;
21120;SDS011;12519;43.318;21.898;2022-10-03T11:44:12;8.0;;;7.0;;
21120;SDS011;12519;43.318;21.898;2022-10-03T11:49:31;8.0;;;6.0;;
21120;SDS011;12519;43.318;21.898;2022-10-03T11:55:29;8.0;;;6.0;;
21120;SDS011;12519;43.318;21.898;2022-10-03T12:00:20;9.0;;;6.0;;
21120;SDS011;12519;43.318;21.898;2022-10-03T12:05:14;9.0;;;6.0;;
21120;SDS011;12519;43.318;21.898;2022-10-03T12:10:42;10.0;;;8.0;;
21120;SDS011;12519;43.318;21.898;2022-10-03T12:15:49;10.0;;;8.0;;
21120;SDS011;12519;43.318;21.898;2022-10-03T12:21:02;10.0;;;9.0;;
21120;SDS011;12519;43.318;21.898;2022-10-03T12:25:48;10.0;;;9.0;;
21120;SDS011;12519;43.318;21.898;2022-10-03T12:30:40;8.0;;;8.0;;
21120;SDS011;12519;43.318;21.898;2022-10-03T12:35:44;8.0;;;8.0;;
21120;SDS011;12519;43.318;21.898;2022-10-03T12:40:46;7.0;;;6.0;;
21120;SDS011;12519;43.318;21.898;2022-10-03T12:45:56;7.0;;;6.0;;
21120;SDS011;12519;43.318;21.898;2022-10-03T12:50:54;8.0;;;6.0;;
21120;SDS011;12519;43.318;21.898;2022-10-03T12:56:01;8.0;;;6.0;;
21120;SDS011;12519;43.318;21.898;2022-10-03T13:01:09;9.0;;;7.0;;
21120;SDS011;12519;43.318;21.898;2022-10-03T13:06:35;9.0;;;7.0;;
21120;SDS011;12519;43.318;21.898;2022-10-03T13:11:49;8.0;;;7.0;;
21120;SDS011;12519;43.318;21.898;2022-10-03T13:16:59;8.0;;;7.0;;
21120;SDS011;12519;43.318;21.898;2022-10-03T13:22:20;8.0;;;7.0;;
21120;SDS011;12519;43.318;21.898;2022-10-03T13:27:32;10.0;;;9.0;;
21120;SDS011;12519;43.318;21.898;2022-10-03T13:32:31;10.0;;;9.0;;
21120;SDS011;12519;43.318;21.898;2022-10-03T13:37:24;13.0;;;11.0;;
21120;SDS011;12519;43.318;21.898;2022-10-03T13:42:37;13.0;;;11.0;;
21120;SDS011;12519;43.318;21.898;2022-10-03T13:47:41;10.0;;;8.0;;
21120;SDS011;12519;43.318;21.898;2022-10-03T13:52:39;10.0;;;8.0;;
21120;SDS011;12519;43.318;21.898;2022-10-03T13:57:38;8.0;;;6.0;;
21120;SDS011;12519;43.318;21.898;2022-10-03T14:03:09;8.0;;;6.0;;
21120;SDS011;12519;43.318;21.898;2022-10-03T14:08:41;7.0;;;6.0;;
21120;SDS011;12519;43.318;21.898;2022-10-03T14:16:17;7.0;;;6.0;;
21120;SDS011;12519;43.318;21.898;2022-10-03T14:21:29;6.0;;;5.0;;
21120;SDS011;12519;43.318;21.898;2022-10-03T14:27:03;6.0;;;5.0;;
21120;SDS011;12519;43.318;21.898;2022-10-03T14:32:29;4.0;;;4.0;;
21120;SDS011;12519;43.318;21.898;2022-10-03T14:37:46;3.0;;;3.0;;
21120;SDS011;12519;43.318;21.898;2022-10-03T14:43:16;3.0;;;3.0;;
21120;SDS011;12519;43.318;21.898;2022-10-03T14:48:30;4.0;;;3.0;;
21120;SDS011;12519;43.318;21.898;2022-10-03T14:53:25;4.0;;;3.0;;
21120;SDS011;12519;43.318;21.898;2022-10-03T14:58:15;4.0;;;3.0;;
21120;SDS011;12519;43.318;21.898;2022-10-03T15:03:18;4.0;;;3.0;;
21120;SDS011;12519;43.318;21.898;2022-10-03T15:08:14;8.0;;;6.0;;
21120;SDS011;12519;43.318;21.898;2022-10-03T15:13:02;8.0;;;6.0;;
21120;SDS011;12519;43.318;21.898;2022-10-03T15:17:48;12.0;;;9.0;;
21120;SDS011;12519;43.318;21.898;2022-10-03T15:22:33;12.0;;;9.0;;
21120;SDS011;12519;43.318;21.898;2022-10-03T15:27:19;12.0;;;9.0;;
21120;SDS011;12519;43.318;21.898;2022-10-03T15:32:02;10.0;;;8.0;;
21120;SDS011;12519;43.318;21.898;2022-10-03T15:37:04;10.0;;;8.0;;
21120;SDS011;12519;43.318;21.898;2022-10-03T15:42:00;8.0;;;7.0;;
21120;SDS011;12519;43.318;21.898;2022-10-03T15:46:59;8.0;;;7.0;;
21120;SDS011;12519;43.318;21.898;2022-10-03T15:51:47;8.0;;;7.0;;
21120;SDS011;12519;43.318;21.898;2022-10-03T15:56:31;8.0;;;7.0;;
21120;SDS011;12519;43.318;21.898;2022-10-03T16:01:23;7.0;;;7.0;;
21120;SDS011;12519;43.318;21.898;2022-10-03T16:06:16;7.0;;;7.0;;
21120;SDS011;12519;43.318;21.898;2022-10-03T16:11:08;8.0;;;8.0;;
21120;SDS011;12519;43.318;21.898;2022-10-03T16:16:09;8.0;;;8.0;;
21120;SDS011;12519;43.318;21.898;2022-10-03T16:21:00;9.0;;;9.0;;
21120;SDS011;12519;43.318;21.898;2022-10-03T16:25:46;9.0;;;9.0;;
21120;SDS011;12519;43.318;21.898;2022-10-03T16:30:43;22.0;;;16.0;;
21120;SDS011;12519;43.318;21.898;2022-10-03T16:35:42;22.0;;;16.0;;
21120;SDS011;12519;43.318;21.898;2022-10-03T16:40:29;36.0;;;23.0;;
21120;SDS011;12519;43.318;21.898;2022-10-03T16:45:23;36.0;;;23.0;;
21120;SDS011;12519;43.318;21.898;2022-10-03T16:50:20;22.0;;;16.0;;
21120;SDS011;12519;43.318;21.898;2022-10-03T16:55:04;22.0;;;16.0;;
21120;SDS011;12519;43.318;21.898;2022-10-03T16:59:58;9.0;;;8.0;;
21120;SDS011;12519;43.318;21.898;2022-10-03T17:04:44;9.0;;;8.0;;
21120;SDS011;12519;43.318;21.898;2022-10-03T17:09:45;10.0;;;9.0;;
21120;SDS011;12519;43.318;21.898;2022-10-03T17:14:36;10.0;;;9.0;;
21120;SDS011;12519;43.318;21.898;2022-10-03T17:19:30;11.0;;;10.0;;
21120;SDS011;12519;43.318;21.898;2022-10-03T17:24:43;11.0;;;10.0;;
21120;SDS011;12519;43.318;21.898;2022-10-03T17:29:49;18.0;;;15.0;;
21120;SDS011;12519;43.318;21.898;2022-10-03T17:35:09;18.0;;;15.0;;
21120;SDS011;12519;43.318;21.898;2022-10-03T17:40:17;24.0;;;20.0;;
21120;SDS011;12519;43.318;21.898;2022-10-03T17:45:30;24.0;;;20.0;;
21120;SDS011;12519;43.318;21.898;2022-10-03T17:50:25;33.0;;;26.0;;
21120;SDS011;12519;43.318;21.898;2022-10-03T17:55:19;33.0;;;26.0;;
21120;SDS011;12519;43.318;21.898;2022-10-03T18:00:16;42.0;;;32.0;;
21120;SDS011;12519;43.318;21.898;2022-10-03T18:05:11;42.0;;;32.0;;
21120;SDS011;12519;43.318;21.898;2022-10-03T18:09:57;29.0;;;22.0;;
21120;SDS011;12519;43.318;21.898;2022-10-03T18:14:49;29.0;;;22.0;;
21120;SDS011;12519;43.318;21.898;2022-10-03T18:20:44;16.0;;;12.0;;
21120;SDS011;12519;43.318;21.898;2022-10-03T18:25:51;16.0;;;12.0;;
21120;SDS011;12519;43.318;21.898;2022-10-03T18:30:45;21.0;;;16.0;;
21120;SDS011;12519;43.318;21.898;2022-10-03T18:35:35;21.0;;;16.0;;
21120;SDS011;12519;43.318;21.898;2022-10-03T18:40:18;26.0;;;20.0;;
21120;SDS011;12519;43.318;21.898;2022-10-03T18:45:00;26.0;;;20.0;;
21120;SDS011;12519;43.318;21.898;2022-10-03T18:49:40;28.0;;;22.0;;
21120;SDS011;12519;43.318;21.898;2022-10-03T18:54:52;28.0;;;22.0;;
21120;SDS011;12519;43.318;21.898;2022-10-03T18:59:50;30.0;;;23.0;;
21120;SDS011;12519;43.318;21.898;2022-10-03T19:04:44;30.0;;;23.0;;
21120;SDS011;12519;43.318;21.898;2022-10-03T19:09:53;30.0;;;24.0;;
21120;SDS011;12519;43.318;21.898;2022-10-03T19:15:19;30.0;;;24.0;;
21120;SDS011;12519;43.318;21.898;2022-10-03T19:20:40;30.0;;;24.0;;
21120;SDS011;12519;43.318;21.898;2022-10-03T19:25:29;30.0;;;24.0;;
21120;SDS011;12519;43.318;21.898;2022-10-03T19:30:19;24.0;;;21.0;;
21120;SDS011;12519;43.318;21.898;2022-10-03T19:35:06;24.0;;;21.0;;
21120;SDS011;12519;43.318;21.898;2022-10-03T19:39:56;19.0;;;18.0;;
21120;SDS011;12519;43.318;21.898;2022-10-03T19:44:37;19.0;;;18.0;;
21120;SDS011;12519;43.318;21.898;2022-10-03T19:49:25;16.0;;;16.0;;
21120;SDS011;12519;43.318;21.898;2022-10-03T19:54:32;16.0;;;16.0;;
21120;SDS011;12519;43.318;21.898;2022-10-03T19:59:42;14.0;;;13.0;;
21120;SDS011;12519;43.318;21.898;2022-10-03T20:04:33;14.0;;;13.0;;
21120;SDS011;12519;43.318;21.898;2022-10-03T20:09:21;32.0;;;25.0;;
21120;SDS011;12519;43.318;21.898;2022-10-03T20:14:13;32.0;;;25.0;;
21120;SDS011;12519;43.318;21.898;2022-10-03T20:19:03;50.0;;;37.0;;
21120;SDS011;12519;43.318;21.898;2022-10-03T20:23:47;50.0;;;37.0;;
21120;SDS011;12519;43.318;21.898;2022-10-03T20:28:48;44.0;;;33.0;;
21120;SDS011;12519;43.318;21.898;2022-10-03T20:33:59;44.0;;;33.0;;
21120;SDS011;12519;43.318;21.898;2022-10-03T20:39:03;39.0;;;29.0;;
21120;SDS011;12519;43.318;21.898;2022-10-03T20:44:03;39.0;;;29.0;;
21120;SDS011;12519;43.318;21.898;2022-10-03T20:49:13;32.0;;;25.0;;
21120;SDS011;12519;43.318;21.898;2022-10-03T20:54:12;32.0;;;25.0;;
21120;SDS011;12519;43.318;21.898;2022-10-03T20:58:57;24.0;;;21.0;;
21120;SDS011;12519;43.318;21.898;2022-10-03T21:04:03;24.0;;;21.0;;
21120;SDS011;12519;43.318;21.898;2022-10-03T21:08:55;20.0;;;18.0;;
21120;SDS011;12519;43.318;21.898;2022-10-03T21:13:46;20.0;;;18.0;;
21120;SDS011;12519;43.318;21.898;2022-10-03T21:18:36;15.0;;;14.0;;
21120;SDS011;12519;43.318;21.898;2022-10-03T21:23:23;15.0;;;14.0;;
21120;SDS011;12519;43.318;21.898;2022-10-03T21:28:03;15.0;;;14.0;;
21120;SDS011;12519;43.318;21.898;2022-10-03T21:33:09;12.0;;;12.0;;
21120;SDS011;12519;43.318;21.898;2022-10-03T21:38:18;12.0;;;12.0;;
21120;SDS011;12519;43.318;21.898;2022-10-03T21:43:18;10.0;;;9.0;;
21120;SDS011;12519;43.318;21.898;2022-10-03T21:48:38;16.0;;;13.0;;
21120;SDS011;12519;43.318;21.898;2022-10-03T21:54:24;16.0;;;13.0;;
21120;SDS011;12519;43.318;21.898;2022-10-03T21:59:55;21.0;;;17.0;;
21120;SDS011;12519;43.318;21.898;2022-10-03T22:04:56;21.0;;;17.0;;
21120;SDS011;12519;43.318;21.898;2022-10-03T22:10:13;19.0;;;16.0;;
21120;SDS011;12519;43.318;21.898;2022-10-03T22:15:04;19.0;;;16.0;;
21120;SDS011;12519;43.318;21.898;2022-10-03T22:20:17;17.0;;;14.0;;
21120;SDS011;12519;43.318;21.898;2022-10-03T22:25:14;17.0;;;14.0;;
21120;SDS011;12519;43.318;21.898;2022-10-03T22:30:56;17.0;;;14.0;;
21120;SDS011;12519;43.318;21.898;2022-10-03T22:36:11;17.0;;;14.0;;
21120;SDS011;12519;43.318;21.898;2022-10-03T22:40:49;17.0;;;14.0;;
21120;SDS011;12519;43.318;21.898;2022-10-03T22:45:44;17.0;;;14.0;;
21120;SDS011;12519;43.318;21.898;2022-10-03T22:50:35;17.0;;;12.0;;
21120;SDS011;12519;43.318;21.898;2022-10-03T22:55:23;17.0;;;12.0;;
21120;SDS011;12519;43.318;21.898;2022-10-03T23:00:07;17.0;;;11.0;;
21120;SDS011;12519;43.318;21.898;2022-10-03T23:04:50;17.0;;;11.0;;
21120;SDS011;12519;43.318;21.898;2022-10-03T23:09:38;17.0;;;10.0;;
21120;SDS011;12519;43.318;21.898;2022-10-03T23:14:43;17.0;;;10.0;;
21120;SDS011;12519;43.318;21.898;2022-10-03T23:19:39;17.0;;;10.0;;
21120;SDS011;12519;43.318;21.898;2022-10-03T23:24:43;17.0;;;10.0;;
21120;SDS011;12519;43.318;21.898;2022-10-03T23:29:31;13.0;;;9.0;;
21120;SDS011;12519;43.318;21.898;2022-10-03T23:34:07;13.0;;;9.0;;
21120;SDS011;12519;43.318;21.898;2022-10-03T23:38:55;9.0;;;8.0;;
21120;SDS011;12519;43.318;21.898;2022-10-03T23:43:38;9.0;;;8.0;;
21120;SDS011;12519;43.318;21.898;2022-10-03T23:48:38;9.0;;;8.0;;
21120;SDS011;12519;43.318;21.898;2022-10-03T23:53:30;9.0;;;8.0;;
21120;SDS011;12519;43.318;21.898;2022-10-03T23:58:20;9.0;;;8.0;;
